Gawa Airstrip


Codes: AYGQ/
Name: Gawa Airstrip
City: Gawa
Country: Papua New Guinea
Elevation: 6500 ft.

Photos at Gawa Airstrip


   Photos courtesy of SpottingLog. You can add your own sightings and photos by signing up for a free trial today.



No photos found.

Weather at Gawa Airstrip


Time (UTC)DescriptionTempratureWindCloud coverageVisibilityPressureHumidity
18-Apr-2024 00:00Light Rain17°C2 mph, NE100%10000m1013hPa84%
18-Apr-2024 03:00Light Rain17°C4 mph, N100%8457m1012hPa83%
18-Apr-2024 06:00Moderate Rain17°C2 mph, N99%9253m1010hPa92%
18-Apr-2024 09:00Moderate Rain13°C0 mph, N99%5832m1011hPa99%
18-Apr-2024 12:00Light Rain13°C2 mph, NE100%10000m1014hPa99%
18-Apr-2024 15:00Light Rain13°C2 mph, NE100%7128m1013hPa100%
18-Apr-2024 18:00Light Rain12°C2 mph, N100%0m1012hPa100%
18-Apr-2024 21:00Light Rain13°C2 mph, N100%0m1013hPa100%
19-Apr-2024 00:00Light Rain15°C4 mph, NE97%10000m1014hPa90%
19-Apr-2024 03:00Light Rain20°C4 mph, NE70%10000m1010hPa64%
19-Apr-2024 06:00Light Rain21°C4 mph, N55%10000m1008hPa58%
19-Apr-2024 09:00Light Rain14°C2 mph, N17%10000m1011hPa94%
19-Apr-2024 12:00Scattered Clouds12°C2 mph, N48%10000m1014hPa99%
19-Apr-2024 15:00Overcast Clouds12°C2 mph, N100%6525m1014hPa99%
19-Apr-2024 18:00Overcast Clouds12°C2 mph, NE100%2679m1013hPa99%
19-Apr-2024 21:00Overcast Clouds13°C2 mph, NE100%10000m1015hPa98%
20-Apr-2024 00:00Overcast Clouds17°C2 mph, NE99%10000m1014hPa71%
20-Apr-2024 03:00Overcast Clouds23°C2 mph, NE86%10000m1009hPa45%
20-Apr-2024 06:00Light Rain21°C2 mph, SW94%10000m1007hPa59%
20-Apr-2024 09:00Light Rain15°C2 mph, SW100%10000m1012hPa99%
20-Apr-2024 12:00Light Rain14°C2 mph, NE100%10000m1014hPa99%
20-Apr-2024 15:00Light Rain13°C2 mph, NE100%3394m1014hPa100%
20-Apr-2024 18:00Overcast Clouds12°C2 mph, NE100%10000m1013hPa99%
20-Apr-2024 21:00Broken Clouds12°C2 mph, NE78%10000m1015hPa99%
21-Apr-2024 00:00Broken Clouds17°C2 mph, NE81%10000m1014hPa76%
21-Apr-2024 03:00Few Clouds24°C2 mph, NE17%10000m1008hPa42%
21-Apr-2024 06:00Few Clouds24°C2 mph, NE15%10000m1006hPa46%
21-Apr-2024 09:00Light Rain15°C2 mph, N76%10000m1011hPa96%
21-Apr-2024 12:00Light Rain14°C2 mph, NE81%10000m1013hPa99%
21-Apr-2024 15:00Overcast Clouds13°C2 mph, NE86%10000m1012hPa98%
21-Apr-2024 18:00Broken Clouds12°C2 mph, E79%5383m1012hPa99%
21-Apr-2024 21:00Broken Clouds12°C0 mph, NE62%10000m1013hPa98%
22-Apr-2024 00:00Broken Clouds18°C2 mph, NE68%10000m1012hPa71%
22-Apr-2024 03:00Overcast Clouds25°C2 mph, NE87%10000m1007hPa42%
22-Apr-2024 06:00Light Rain23°C0 mph, NE70%10000m1005hPa48%
22-Apr-2024 09:00Light Rain15°C2 mph, N92%10000m1010hPa93%
22-Apr-2024 12:00Light Rain13°C2 mph, NE93%10000m1013hPa96%
22-Apr-2024 15:00Overcast Clouds13°C2 mph, E97%10000m1012hPa97%
22-Apr-2024 18:00Overcast Clouds12°C0 mph, NE98%10000m1012hPa99%
22-Apr-2024 21:00Overcast Clouds12°C2 mph, NE92%10000m1013hPa98%